Time;durP1;ratioP1;P1;durP2;ratioP2;P2;SDS_P1;SDS_P2;PMS_P1;PMS_P2;Temp;Humidity;BMP_temperature;BMP_pressure;BME280_temperature;BME280_humidity;BME280_pressure;Samples;Min_cycle;Max_cycle;Signal;HPM_P1;HPM_P2
2024/03/30 00:00:08;;;;;;;8.40;4.30;;;;;;;;;;5053244;28;20040;-80
2024/03/30 00:03:12;;;;;;;15.35;5.35;;;;;;;;;;5053397;28;20037;-81
2024/03/30 00:06:10;;;;;;;12.18;4.20;;;;;;;;;;5041765;28;20037;-82
2024/03/30 00:09:08;;;;;;;10.25;4.65;;;;;;;;;;5052993;28;20037;-83
2024/03/30 00:12:09;;;;;;;11.80;4.43;;;;;;;;;;5053710;28;20041;-83
2024/03/30 00:15:07;;;;;;;11.07;4.65;;;;;;;;;;5055152;28;20041;-82
2024/03/30 00:18:05;;;;;;;9.95;4.97;;;;;;;;;;5047057;28;20398;-81
2024/03/30 00:21:03;;;;;;;15.63;4.82;;;;;;;;;;5046471;28;20036;-82
2024/03/30 00:24:01;;;;;;;9.50;5.18;;;;;;;;;;5058497;28;20033;-82
2024/03/30 00:26:58;;;;;;;8.80;4.15;;;;;;;;;;5053225;28;20032;-82
2024/03/30 00:29:56;;;;;;;11.38;5.00;;;;;;;;;;5046257;28;20037;-82
2024/03/30 00:32:54;;;;;;;9.85;4.90;;;;;;;;;;5057428;28;20045;-83
2024/03/30 00:35:58;;;;;;;18.70;5.18;;;;;;;;;;5053739;28;20033;-81
2024/03/30 00:38:56;;;;;;;27.65;15.10;;;;;;;;;;5045584;28;20041;-83
2024/03/30 00:41:54;;;;;;;30.10;13.57;;;;;;;;;;5052743;28;20120;-82
2024/03/30 00:44:52;;;;;;;107.97;55.03;;;;;;;;;;5045484;28;20032;-81
2024/03/30 00:47:50;;;;;;;81.03;39.47;;;;;;;;;;5045160;28;20032;-81
2024/03/30 00:50:47;;;;;;;37.50;19.90;;;;;;;;;;5058811;28;20040;-82
2024/03/30 00:53:46;;;;;;;53.92;32.72;;;;;;;;;;5051751;28;20044;-83
2024/03/30 00:56:43;;;;;;;66.95;32.20;;;;;;;;;;5054414;28;20737;-82
2024/03/30 00:59:41;;;;;;;25.35;12.48;;;;;;;;;;5058523;28;20036;-81
2024/03/30 01:02:39;;;;;;;10.25;4.68;;;;;;;;;;5052260;28;20407;-82
2024/03/30 01:05:37;;;;;;;14.35;4.50;;;;;;;;;;5044365;28;20029;-81
2024/03/30 01:08:35;;;;;;;8.35;3.60;;;;;;;;;;5051917;28;20029;-82
2024/03/30 01:11:33;;;;;;;9.18;4.43;;;;;;;;;;5051218;28;20029;-82
2024/03/30 01:14:31;;;;;;;20.67;11.05;;;;;;;;;;5054958;28;20045;-81
2024/03/30 01:17:32;;;;;;;9.85;5.50;;;;;;;;;;5052259;28;20040;-81
2024/03/30 01:20:30;;;;;;;9.45;3.72;;;;;;;;;;5062222;28;20045;-81
2024/03/30 01:23:28;;;;;;;11.68;4.05;;;;;;;;;;5063248;28;20033;-81
2024/03/30 01:26:28;;;;;;;10.27;3.13;;;;;;;;;;5050961;28;20391;-81
2024/03/30 01:29:27;;;;;;;8.70;3.80;;;;;;;;;;5060791;28;20025;-82
2024/03/30 01:32:24;;;;;;;9.93;4.07;;;;;;;;;;5077668;28;20037;-81
2024/03/30 01:35:23;;;;;;;8.25;3.35;;;;;;;;;;5064051;28;20032;-82
2024/03/30 01:38:20;;;;;;;10.27;4.15;;;;;;;;;;5072133;28;20033;-82
2024/03/30 01:41:18;;;;;;;6.70;2.92;;;;;;;;;;5064371;28;20040;-82
2024/03/30 01:44:16;;;;;;;8.57;3.25;;;;;;;;;;5071264;28;20647;-82
2024/03/30 01:47:14;;;;;;;9.15;3.58;;;;;;;;;;5072611;28;20033;-82
2024/03/30 01:50:12;;;;;;;9.30;4.53;;;;;;;;;;5077573;28;20041;-81
2024/03/30 01:53:10;;;;;;;7.72;3.72;;;;;;;;;;5057701;28;20040;-81
2024/03/30 01:56:08;;;;;;;9.85;4.28;;;;;;;;;;5062244;28;20049;-81
2024/03/30 01:59:06;;;;;;;13.00;4.18;;;;;;;;;;5072135;28;20037;-82
2024/03/30 02:02:04;;;;;;;9.85;3.08;;;;;;;;;;5070833;28;20040;-81
2024/03/30 02:05:02;;;;;;;9.75;3.08;;;;;;;;;;5064522;28;20037;-82
2024/03/30 02:08:02;;;;;;;5.63;2.75;;;;;;;;;;5076334;28;20041;-81
2024/03/30 02:11:00;;;;;;;6.68;2.97;;;;;;;;;;5074044;28;20033;-82
2024/03/30 02:13:58;;;;;;;14.32;3.90;;;;;;;;;;5071452;28;20040;-82
2024/03/30 02:16:56;;;;;;;8.02;3.13;;;;;;;;;;5073448;28;20033;-82
2024/03/30 02:19:56;;;;;;;13.98;4.43;;;;;;;;;;5064463;28;20041;-81
2024/03/30 02:23:03;;;;;;;7.03;3.20;;;;;;;;;;5072460;28;20041;-81
2024/03/30 02:26:01;;;;;;;9.50;2.78;;;;;;;;;;5070777;28;20036;-82
2024/03/30 02:28:58;;;;;;;7.63;2.33;;;;;;;;;;5063828;28;20025;-81
2024/03/30 02:31:57;;;;;;;6.93;2.78;;;;;;;;;;5084168;28;20033;-81
2024/03/30 02:34:54;;;;;;;5.00;3.05;;;;;;;;;;5077234;28;20024;-81
2024/03/30 02:37:52;;;;;;;9.38;2.92;;;;;;;;;;5048124;28;20033;-82
2024/03/30 02:40:56;;;;;;;7.97;2.55;;;;;;;;;;5030423;28;20030;-81
2024/03/30 02:43:58;;;;;;;11.85;3.10;;;;;;;;;;5033284;28;20037;-82
2024/03/30 02:46:55;;;;;;;13.00;3.15;;;;;;;;;;5037135;28;20025;-82
2024/03/30 02:49:54;;;;;;;11.88;2.63;;;;;;;;;;5041339;28;20041;-82
2024/03/30 02:52:51;;;;;;;9.15;2.63;;;;;;;;;;5027507;28;20503;-81
2024/03/30 02:55:49;;;;;;;14.27;3.15;;;;;;;;;;5051167;28;20045;-81
2024/03/30 02:58:47;;;;;;;8.75;2.55;;;;;;;;;;5054796;28;20037;-82
2024/03/30 03:01:45;;;;;;;13.27;3.22;;;;;;;;;;5055713;28;20041;-82
2024/03/30 03:04:43;;;;;;;18.25;3.13;;;;;;;;;;5054873;28;20395;-82
2024/03/30 03:07:41;;;;;;;21.92;3.40;;;;;;;;;;5053997;28;20033;-81
2024/03/30 03:10:39;;;;;;;13.82;2.80;;;;;;;;;;5046792;28;20037;-81
2024/03/30 03:13:37;;;;;;;18.45;2.42;;;;;;;;;;5054734;28;20032;-82
2024/03/30 03:16:34;;;;;;;23.10;3.58;;;;;;;;;;5043260;28;20036;-82
2024/03/30 03:19:32;;;;;;;14.77;3.20;;;;;;;;;;5060649;28;20037;-82
2024/03/30 03:22:30;;;;;;;15.93;2.85;;;;;;;;;;5040590;28;20033;-82
2024/03/30 03:25:28;;;;;;;14.63;3.35;;;;;;;;;;5059665;28;20040;-82
2024/03/30 03:28:26;;;;;;;13.38;2.63;;;;;;;;;;5060310;28;20033;-81
2024/03/30 03:31:24;;;;;;;11.10;2.22;;;;;;;;;;5053181;28;20037;-81
2024/03/30 03:34:22;;;;;;;22.88;4.07;;;;;;;;;;5046966;28;20037;-81
2024/03/30 03:37:20;;;;;;;41.35;4.97;;;;;;;;;;5040998;28;20036;-81
2024/03/30 03:40:18;;;;;;;20.67;2.90;;;;;;;;;;5057085;28;20384;-81
2024/03/30 03:43:16;;;;;;;28.90;6.00;;;;;;;;;;5054461;28;20041;-81
2024/03/30 03:46:14;;;;;;;38.65;4.47;;;;;;;;;;5054061;28;20392;-81
2024/03/30 03:49:11;;;;;;;27.85;4.53;;;;;;;;;;5053226;28;20491;-82
2024/03/30 03:52:10;;;;;;;28.27;3.30;;;;;;;;;;5059328;28;20033;-83
2024/03/30 03:55:07;;;;;;;36.13;4.72;;;;;;;;;;5046112;28;20037;-82
2024/03/30 03:58:05;;;;;;;24.42;3.67;;;;;;;;;;5053863;28;20033;-82
2024/03/30 04:01:06;;;;;;;24.73;4.07;;;;;;;;;;5042379;28;20037;-83
2024/03/30 04:04:04;;;;;;;34.38;4.18;;;;;;;;;;5053015;28;20399;-82
2024/03/30 04:07:02;;;;;;;33.72;4.43;;;;;;;;;;5041145;28;20029;-82
2024/03/30 04:10:01;;;;;;;29.30;3.78;;;;;;;;;;5041566;28;20371;-82
2024/03/30 04:12:59;;;;;;;39.88;6.35;;;;;;;;;;5044935;28;20045;-81
2024/03/30 04:15:57;;;;;;;26.80;4.03;;;;;;;;;;5042021;28;20041;-82
2024/03/30 04:18:55;;;;;;;50.28;5.47;;;;;;;;;;5045182;28;20426;-82
2024/03/30 04:21:53;;;;;;;43.70;5.07;;;;;;;;;;5053118;28;20049;-81
2024/03/30 04:24:53;;;;;;;30.33;4.47;;;;;;;;;;5052549;28;20037;-82
2024/03/30 04:27:51;;;;;;;40.83;5.25;;;;;;;;;;5052814;28;20029;-81
2024/03/30 04:30:57;;;;;;;25.45;4.22;;;;;;;;;;5058631;28;20033;-81
2024/03/30 04:33:54;;;;;;;28.95;5.40;;;;;;;;;;5052948;28;20820;-82
2024/03/30 04:36:56;;;;;;;32.78;4.72;;;;;;;;;;5054333;28;20033;-82
2024/03/30 04:39:53;;;;;;;33.22;4.03;;;;;;;;;;5053132;28;20387;-82
2024/03/30 04:42:51;;;;;;;38.80;6.57;;;;;;;;;;5065853;28;20037;-81
2024/03/30 04:45:49;;;;;;;25.95;3.78;;;;;;;;;;5053287;28;20029;-82
2024/03/30 04:48:47;;;;;;;39.17;4.78;;;;;;;;;;5058921;28;20037;-82
2024/03/30 04:51:45;;;;;;;31.25;4.28;;;;;;;;;;5051501;28;20025;-82
2024/03/30 04:54:43;;;;;;;32.90;5.03;;;;;;;;;;5058322;28;20041;-82
2024/03/30 04:57:41;;;;;;;34.85;5.00;;;;;;;;;;5065212;28;20033;-82
2024/03/30 05:00:39;;;;;;;37.65;5.68;;;;;;;;;;5051414;28;20040;-81
2024/03/30 05:03:37;;;;;;;33.92;5.85;;;;;;;;;;5051595;28;20033;-82
2024/03/30 05:06:35;;;;;;;30.73;5.45;;;;;;;;;;5041184;28;20037;-82
2024/03/30 05:09:33;;;;;;;34.42;6.25;;;;;;;;;;5052551;28;20029;-82
2024/03/30 05:12:30;;;;;;;37.97;6.82;;;;;;;;;;5057816;28;20036;-82
2024/03/30 05:15:29;;;;;;;28.75;4.32;;;;;;;;;;5059164;28;20028;-81
2024/03/30 05:18:26;;;;;;;36.97;5.05;;;;;;;;;;5058677;28;20037;-81
2024/03/30 05:21:24;;;;;;;30.65;5.05;;;;;;;;;;5052126;28;20486;-82
2024/03/30 05:24:22;;;;;;;43.58;4.00;;;;;;;;;;5058210;28;20037;-82
2024/03/30 05:27:20;;;;;;;43.05;5.95;;;;;;;;;;5039506;28;20384;-81
2024/03/30 05:30:18;;;;;;;31.10;5.03;;;;;;;;;;5052433;28;20037;-81
2024/03/30 05:33:19;;;;;;;29.38;4.60;;;;;;;;;;5051752;28;20045;-82
2024/03/30 05:36:17;;;;;;;29.90;4.25;;;;;;;;;;5042037;28;20041;-82
2024/03/30 05:39:15;;;;;;;39.72;4.88;;;;;;;;;;5051744;28;20033;-81
2024/03/30 05:42:15;;;;;;;29.15;5.13;;;;;;;;;;5066270;28;20045;-82
2024/03/30 05:45:12;;;;;;;37.97;5.47;;;;;;;;;;5057577;28;20041;-83
2024/03/30 05:48:10;;;;;;;41.58;5.03;;;;;;;;;;5042714;28;20033;-81
2024/03/30 05:51:08;;;;;;;51.30;5.32;;;;;;;;;;5039539;28;20036;-82
2024/03/30 05:54:06;;;;;;;37.15;4.68;;;;;;;;;;5059809;28;20037;-82
2024/03/30 05:57:04;;;;;;;34.63;5.55;;;;;;;;;;5032352;28;20042;-83
2024/03/30 06:00:02;;;;;;;34.80;5.15;;;;;;;;;;5034683;28;20037;-83
2024/03/30 06:03:06;;;;;;;35.35;5.30;;;;;;;;;;5032066;28;20033;-82
2024/03/30 06:06:03;;;;;;;43.33;6.35;;;;;;;;;;5031894;28;20037;-83
2024/03/30 06:09:01;;;;;;;41.13;5.13;;;;;;;;;;5037482;28;20376;-82
2024/03/30 06:11:59;;;;;;;46.92;5.18;;;;;;;;;;5044132;28;20034;-82
2024/03/30 06:14:57;;;;;;;43.63;6.28;;;;;;;;;;5034088;28;20379;-82
2024/03/30 06:17:58;;;;;;;37.67;5.18;;;;;;;;;;5034469;28;20046;-82
2024/03/30 06:20:56;;;;;;;55.83;5.78;;;;;;;;;;5055556;28;20037;-82
2024/03/30 06:23:54;;;;;;;46.65;5.60;;;;;;;;;;5049479;28;20037;-80
2024/03/30 06:26:55;;;;;;;42.55;5.88;;;;;;;;;;5039092;28;20025;-81
2024/03/30 06:29:53;;;;;;;39.00;4.82;;;;;;;;;;5075367;28;20033;-83
2024/03/30 06:32:51;;;;;;;50.83;5.13;;;;;;;;;;5047808;28;20048;-82
2024/03/30 06:35:55;;;;;;;30.20;5.53;;;;;;;;;;5046420;28;20037;-82
2024/03/30 06:38:53;;;;;;;45.78;6.10;;;;;;;;;;5054259;28;20029;-84
2024/03/30 06:45:03;;;;;;;45.72;7.97;;;;;;;;;;5061659;28;20033;-83
2024/03/30 06:48:01;;;;;;;26.90;5.05;;;;;;;;;;5055215;28;20501;-83
2024/03/30 06:50:59;;;;;;;56.78;6.90;;;;;;;;;;5059859;28;20025;-84
2024/03/30 06:53:57;;;;;;;32.13;5.30;;;;;;;;;;5054957;28;20041;-83
2024/03/30 06:56:55;;;;;;;43.95;6.53;;;;;;;;;;5043491;28;20537;-82
2024/03/30 06:59:53;;;;;;;34.40;5.75;;;;;;;;;;5047576;28;20037;-83
2024/03/30 07:02:51;;;;;;;28.65;4.32;;;;;;;;;;5057017;28;20037;-82
2024/03/30 07:05:48;;;;;;;42.03;5.43;;;;;;;;;;5054833;28;20037;-82
2024/03/30 07:08:46;;;;;;;35.13;5.43;;;;;;;;;;5061108;28;20025;-82
2024/03/30 07:11:44;;;;;;;27.55;4.22;;;;;;;;;;5047399;28;20380;-85
2024/03/30 07:14:42;;;;;;;40.17;5.97;;;;;;;;;;5068470;28;20029;-83
2024/03/30 07:17:40;;;;;;;54.20;7.45;;;;;;;;;;5054325;28;20033;-84
2024/03/30 07:20:38;;;;;;;40.38;6.88;;;;;;;;;;5060257;28;20045;-84
2024/03/30 07:23:36;;;;;;;49.30;7.80;;;;;;;;;;5054647;28;20029;-84
2024/03/30 07:26:34;;;;;;;47.42;6.55;;;;;;;;;;5085761;28;20052;-84
2024/03/30 07:29:32;;;;;;;43.40;5.72;;;;;;;;;;5060211;28;20029;-83
2024/03/30 07:32:30;;;;;;;46.72;8.10;;;;;;;;;;5054992;28;20033;-83
2024/03/30 07:35:28;;;;;;;52.08;6.30;;;;;;;;;;5047458;28;20037;-82
2024/03/30 07:38:26;;;;;;;47.72;5.00;;;;;;;;;;5047865;28;20050;-84
2024/03/30 07:41:24;;;;;;;31.75;4.53;;;;;;;;;;5027297;28;20033;-82
2024/03/30 07:44:22;;;;;;;41.38;5.72;;;;;;;;;;5040762;28;20041;-82
2024/03/30 07:47:19;;;;;;;44.05;4.28;;;;;;;;;;5037474;28;20021;-83
2024/03/30 07:50:17;;;;;;;38.47;7.38;;;;;;;;;;5058654;28;20033;-81
2024/03/30 07:53:15;;;;;;;38.13;5.22;;;;;;;;;;5055472;28;20041;-81
2024/03/30 07:56:13;;;;;;;30.48;5.07;;;;;;;;;;5062734;28;20033;-80
2024/03/30 07:59:11;;;;;;;77.88;8.55;;;;;;;;;;5052433;28;20029;-82
2024/03/30 08:02:09;;;;;;;42.28;5.68;;;;;;;;;;5053907;28;20045;-84
2024/03/30 08:05:07;;;;;;;48.72;6.45;;;;;;;;;;5055199;28;20041;-87
2024/03/30 08:08:05;;;;;;;43.80;5.95;;;;;;;;;;5068425;28;20486;-83
2024/03/30 08:11:03;;;;;;;37.28;7.05;;;;;;;;;;5062969;28;20036;-89
2024/03/30 08:14:01;;;;;;;42.65;5.85;;;;;;;;;;5061522;28;20033;-85
2024/03/30 08:16:59;;;;;;;60.60;8.80;;;;;;;;;;5047733;28;20033;-82
2024/03/30 08:19:57;;;;;;;61.05;6.80;;;;;;;;;;5059841;28;20036;-86
2024/03/30 08:22:55;;;;;;;43.25;5.18;;;;;;;;;;5062648;28;20037;-84
2024/03/30 08:25:55;;;;;;;62.53;7.68;;;;;;;;;;5061960;28;20037;-83
2024/03/30 08:28:56;;;;;;;51.88;6.57;;;;;;;;;;5048430;28;20033;-85
2024/03/30 08:31:54;;;;;;;29.80;5.22;;;;;;;;;;5051113;28;20028;-85
2024/03/30 08:34:53;;;;;;;36.50;4.72;;;;;;;;;;5051422;28;20037;-85
2024/03/30 08:37:50;;;;;;;49.83;6.80;;;;;;;;;;5053961;28;20383;-85
2024/03/30 08:40:48;;;;;;;66.82;6.47;;;;;;;;;;5073379;28;20032;-84
2024/03/30 08:43:46;;;;;;;47.40;6.50;;;;;;;;;;5047185;28;20045;-84
2024/03/30 08:46:44;;;;;;;41.35;4.95;;;;;;;;;;5061097;28;20028;-83
2024/03/30 08:49:42;;;;;;;39.22;5.53;;;;;;;;;;5070776;28;20478;-85
2024/03/30 08:52:43;;;;;;;39.78;5.10;;;;;;;;;;5060543;28;20033;-83
2024/03/30 08:55:41;;;;;;;30.77;4.57;;;;;;;;;;5041183;28;20037;-82
2024/03/30 08:58:39;;;;;;;55.50;7.28;;;;;;;;;;5061013;28;20028;-83
2024/03/30 09:01:37;;;;;;;44.78;5.03;;;;;;;;;;5041519;28;20658;-84
2024/03/30 09:04:35;;;;;;;44.67;7.05;;;;;;;;;;5045748;28;20040;-85
2024/03/30 09:07:33;;;;;;;42.95;7.88;;;;;;;;;;5032751;28;20037;-83
2024/03/30 09:10:31;;;;;;;50.33;6.28;;;;;;;;;;5059393;28;20028;-84
2024/03/30 09:13:29;;;;;;;52.75;7.03;;;;;;;;;;5069494;28;20409;-84
2024/03/30 09:16:27;;;;;;;58.17;8.10;;;;;;;;;;5054951;28;20029;-85
2024/03/30 09:19:25;;;;;;;37.55;5.25;;;;;;;;;;5078021;28;20123;-85
2024/03/30 09:22:23;;;;;;;41.47;6.53;;;;;;;;;;5050442;28;20032;-85
2024/03/30 09:25:21;;;;;;;43.55;5.47;;;;;;;;;;5044421;28;20037;-84
2024/03/30 09:28:19;;;;;;;31.48;4.80;;;;;;;;;;5044569;28;20391;-85
2024/03/30 09:31:17;;;;;;;48.42;4.88;;;;;;;;;;5037404;28;20041;-85
2024/03/30 09:34:15;;;;;;;37.35;6.03;;;;;;;;;;5059402;28;20040;-81
2024/03/30 09:37:13;;;;;;;42.47;7.10;;;;;;;;;;5060537;28;20043;-85
2024/03/30 09:40:11;;;;;;;26.88;3.67;;;;;;;;;;5050268;28;20049;-83
2024/03/30 09:43:09;;;;;;;36.85;6.15;;;;;;;;;;5071217;28;20040;-82
2024/03/30 09:46:07;;;;;;;41.15;6.38;;;;;;;;;;5070250;28;20032;-81
2024/03/30 09:49:05;;;;;;;42.85;4.95;;;;;;;;;;5073606;28;20044;-82
2024/03/30 09:52:03;;;;;;;29.23;4.82;;;;;;;;;;5068101;28;20037;-81
2024/03/30 09:55:04;;;;;;;38.00;6.15;;;;;;;;;;5065718;28;20036;-83
2024/03/30 09:58:03;;;;;;;37.65;5.40;;;;;;;;;;5051589;28;20037;-82
2024/03/30 10:01:01;;;;;;;31.13;4.57;;;;;;;;;;5069181;28;20044;-82
2024/03/30 10:04:00;;;;;;;32.13;4.43;;;;;;;;;;5048979;28;20509;-83
2024/03/30 10:07:01;;;;;;;38.20;4.93;;;;;;;;;;5062099;28;20033;-82
2024/03/30 10:10:02;;;;;;;40.38;6.40;;;;;;;;;;5036616;28;20376;-82
2024/03/30 10:13:04;;;;;;;40.55;4.75;;;;;;;;;;5068407;28;20036;-81
2024/03/30 10:16:02;;;;;;;45.60;6.28;;;;;;;;;;5073406;28;20037;-84
2024/03/30 10:19:00;;;;;;;52.92;7.20;;;;;;;;;;5049120;28;20386;-83
2024/03/30 10:21:59;;;;;;;45.10;7.55;;;;;;;;;;5073887;28;20025;-83
2024/03/30 10:25:04;;;;;;;39.05;5.97;;;;;;;;;;5075974;28;20044;-83
2024/03/30 10:28:02;;;;;;;45.35;5.72;;;;;;;;;;5077255;28;20391;-84
2024/03/30 10:31:01;;;;;;;49.40;6.38;;;;;;;;;;5064751;28;20040;-83
2024/03/30 10:33:59;;;;;;;40.60;6.07;;;;;;;;;;5046477;28;20044;-82
2024/03/30 10:37:00;;;;;;;31.80;6.65;;;;;;;;;;5066994;28;20041;-83
2024/03/30 10:39:58;;;;;;;41.55;6.18;;;;;;;;;;5044289;28;20041;-84
2024/03/30 10:42:59;;;;;;;36.70;6.63;;;;;;;;;;5051260;28;20040;-83
2024/03/30 10:45:57;;;;;;;41.67;4.97;;;;;;;;;;5059248;28;20037;-84
2024/03/30 10:48:54;;;;;;;51.88;5.25;;;;;;;;;;5054275;28;20029;-85
2024/03/30 10:51:52;;;;;;;38.72;5.93;;;;;;;;;;5063832;28;20028;-84
2024/03/30 10:54:50;;;;;;;43.22;6.22;;;;;;;;;;5046645;28;20037;-84
2024/03/30 10:57:48;;;;;;;43.30;5.35;;;;;;;;;;5055508;28;20379;-84
2024/03/30 11:00:47;;;;;;;30.65;5.07;;;;;;;;;;5046521;28;20045;-86
2024/03/30 11:03:45;;;;;;;47.15;7.13;;;;;;;;;;5059770;28;20037;-87
2024/03/30 11:06:43;;;;;;;41.20;5.85;;;;;;;;;;5042338;28;20029;-86
2024/03/30 11:09:41;;;;;;;41.45;7.32;;;;;;;;;;5072077;28;20028;-88
2024/03/30 11:12:39;;;;;;;50.20;6.05;;;;;;;;;;5076482;28;20029;-87
2024/03/30 11:15:41;;;;;;;42.50;5.03;;;;;;;;;;5069976;28;20032;-85
2024/03/30 11:19:00;;;;;;;37.03;5.20;;;;;;;;;;5061909;28;20029;-84
2024/03/30 11:22:11;;;;;;;41.08;5.60;;;;;;;;;;5070550;28;20036;-84
2024/03/30 11:25:10;;;;;;;48.72;6.25;;;;;;;;;;5060597;28;20072;-84
2024/03/30 11:28:15;;;;;;;44.67;7.22;;;;;;;;;;5063594;28;20037;-81
2024/03/30 11:31:13;;;;;;;49.20;6.43;;;;;;;;;;5067473;28;20036;-86
2024/03/30 11:34:13;;;;;;;55.42;4.78;;;;;;;;;;5050242;28;20040;-85
2024/03/30 11:37:19;;;;;;;30.00;5.28;;;;;;;;;;5064613;28;20037;-85
2024/03/30 11:40:21;;;;;;;36.75;5.30;;;;;;;;;;5068879;28;20033;-85
2024/03/30 11:43:36;;;;;;;42.75;6.00;;;;;;;;;;5053400;28;20371;-87
2024/03/30 11:46:34;;;;;;;37.17;5.25;;;;;;;;;;5054355;28;20033;-86
2024/03/30 11:49:32;;;;;;;42.25;4.68;;;;;;;;;;5056147;28;20044;-84
2024/03/30 11:52:29;;;;;;;48.85;5.07;;;;;;;;;;5059510;28;20025;-86
2024/03/30 11:55:40;;;;;;;36.35;5.20;;;;;;;;;;5074029;28;20037;-85
2024/03/30 11:58:38;;;;;;;45.15;7.20;;;;;;;;;;5040022;28;20486;-85
2024/03/30 12:01:36;;;;;;;34.50;5.28;;;;;;;;;;5070457;28;20049;-84
2024/03/30 12:04:34;;;;;;;31.85;5.45;;;;;;;;;;5063637;28;20382;-83
2024/03/30 12:07:34;;;;;;;43.30;5.82;;;;;;;;;;5067693;28;20490;-85
2024/03/30 12:10:32;;;;;;;44.05;5.20;;;;;;;;;;5062257;28;20513;-86
2024/03/30 12:13:30;;;;;;;41.45;5.75;;;;;;;;;;5086090;28;20033;-85
2024/03/30 12:16:28;;;;;;;35.13;6.35;;;;;;;;;;5071265;28;20025;-84
2024/03/30 12:19:26;;;;;;;27.58;3.78;;;;;;;;;;5063341;28;20028;-86
2024/03/30 12:22:26;;;;;;;37.17;4.55;;;;;;;;;;5054107;28;20478;-86
2024/03/30 12:25:24;;;;;;;33.92;3.92;;;;;;;;;;5059451;28;20497;-85
2024/03/30 12:28:22;;;;;;;37.65;5.93;;;;;;;;;;5053134;28;20021;-85
2024/03/30 12:31:20;;;;;;;40.92;5.93;;;;;;;;;;5045070;28;20395;-83
2024/03/30 12:34:18;;;;;;;46.83;5.82;;;;;;;;;;5045096;28;20037;-85
2024/03/30 12:37:16;;;;;;;29.77;5.00;;;;;;;;;;5053993;28;20033;-83
2024/03/30 12:40:15;;;;;;;45.90;5.10;;;;;;;;;;5050496;28;20029;-85
2024/03/30 12:43:16;;;;;;;52.78;5.35;;;;;;;;;;5069077;28;20033;-85
2024/03/30 12:46:14;;;;;;;39.05;6.28;;;;;;;;;;5060677;28;20032;-85
2024/03/30 12:49:12;;;;;;;44.10;6.05;;;;;;;;;;5061872;28;20033;-86
2024/03/30 12:52:11;;;;;;;33.28;4.97;;;;;;;;;;5065389;28;20383;-84
2024/03/30 12:55:09;;;;;;;54.28;6.75;;;;;;;;;;5060262;28;20045;-87
2024/03/30 12:58:07;;;;;;;49.65;5.47;;;;;;;;;;5050701;28;20044;-86
2024/03/30 13:01:05;;;;;;;32.92;5.10;;;;;;;;;;5074108;28;20036;-85
2024/03/30 13:04:03;;;;;;;47.42;5.65;;;;;;;;;;5052909;28;20034;-86
2024/03/30 13:07:01;;;;;;;49.20;7.57;;;;;;;;;;5034559;28;20046;-86
2024/03/30 13:10:08;;;;;;;56.95;6.82;;;;;;;;;;5045925;28;20038;-86
2024/03/30 13:13:09;;;;;;;38.38;6.22;;;;;;;;;;5052408;28;20037;-86
2024/03/30 13:16:06;;;;;;;47.67;6.85;;;;;;;;;;5023878;28;20033;-83
2024/03/30 13:19:04;;;;;;;36.60;6.97;;;;;;;;;;5058252;28;20029;-86
2024/03/30 13:22:02;;;;;;;45.83;5.82;;;;;;;;;;5045141;28;20099;-87
2024/03/30 13:25:00;;;;;;;28.42;4.97;;;;;;;;;;5058236;28;20041;-87
2024/03/30 13:28:04;;;;;;;66.57;6.90;;;;;;;;;;5048754;28;20029;-86
2024/03/30 13:31:02;;;;;;;45.42;5.50;;;;;;;;;;5059249;28;20032;-84
2024/03/30 13:34:00;;;;;;;38.60;5.15;;;;;;;;;;5060863;28;20033;-84
2024/03/30 13:36:58;;;;;;;37.22;4.93;;;;;;;;;;5044956;28;20032;-86
2024/03/30 13:39:56;;;;;;;43.40;7.20;;;;;;;;;;5047497;28;20033;-85
2024/03/30 13:42:54;;;;;;;46.35;5.15;;;;;;;;;;5067232;28;20032;-87
2024/03/30 13:45:52;;;;;;;48.75;6.30;;;;;;;;;;5050092;28;20470;-87
2024/03/30 13:48:50;;;;;;;37.03;5.13;;;;;;;;;;5033064;28;20041;-86
2024/03/30 13:51:48;;;;;;;49.67;6.13;;;;;;;;;;5061899;28;20040;-87
2024/03/30 13:54:46;;;;;;;36.30;6.20;;;;;;;;;;5046352;28;20546;-86
2024/03/30 13:57:44;;;;;;;43.85;6.05;;;;;;;;;;5037785;28;20030;-86
2024/03/30 14:00:42;;;;;;;53.38;5.78;;;;;;;;;;5052479;28;20048;-84
2024/03/30 14:03:40;;;;;;;32.05;6.07;;;;;;;;;;5057926;28;20032;-84
2024/03/30 14:06:38;;;;;;;39.83;6.68;;;;;;;;;;5050414;28;20040;-84
2024/03/30 14:09:36;;;;;;;40.45;6.20;;;;;;;;;;5054049;28;20029;-85
2024/03/30 14:12:36;;;;;;;36.47;5.68;;;;;;;;;;5054939;28;20044;-86
2024/03/30 14:15:34;;;;;;;57.90;6.75;;;;;;;;;;5042973;28;20526;-87
2024/03/30 14:18:31;;;;;;;66.07;6.40;;;;;;;;;;5044273;28;20045;-87
2024/03/30 14:21:29;;;;;;;62.95;7.60;;;;;;;;;;5046221;28;20031;-86
2024/03/30 14:24:27;;;;;;;38.10;4.95;;;;;;;;;;5067392;28;20029;-83
2024/03/30 14:27:25;;;;;;;37.97;6.15;;;;;;;;;;5055156;28;20052;-83
2024/03/30 14:30:23;;;;;;;46.03;6.80;;;;;;;;;;5045360;28;20605;-86
2024/03/30 14:33:21;;;;;;;38.88;4.60;;;;;;;;;;5055887;28;20038;-85
2024/03/30 14:36:38;;;;;;;33.05;5.38;;;;;;;;;;5042888;28;20036;-85
2024/03/30 14:39:35;;;;;;;43.13;5.68;;;;;;;;;;5049041;28;20025;-84
2024/03/30 14:42:33;;;;;;;54.33;6.18;;;;;;;;;;5074210;28;20039;-85
2024/03/30 14:45:32;;;;;;;37.33;5.45;;;;;;;;;;5056447;28;20033;-85
2024/03/30 14:48:30;;;;;;;32.38;6.18;;;;;;;;;;5064447;28;20502;-88
2024/03/30 14:51:28;;;;;;;46.83;6.85;;;;;;;;;;5062521;28;20029;-87
2024/03/30 14:54:26;;;;;;;26.23;5.25;;;;;;;;;;5064235;28;20037;-84
2024/03/30 14:57:27;;;;;;;39.67;5.30;;;;;;;;;;5066416;28;20033;-87
2024/03/30 15:00:25;;;;;;;35.75;6.55;;;;;;;;;;5047403;28;20498;-85
2024/03/30 15:03:23;;;;;;;36.63;5.32;;;;;;;;;;5049569;28;20029;-85
2024/03/30 15:06:20;;;;;;;34.40;7.80;;;;;;;;;;5067940;28;20513;-87
2024/03/30 15:09:18;;;;;;;42.67;6.22;;;;;;;;;;5062054;28;20053;-86
2024/03/30 15:12:16;;;;;;;37.47;4.72;;;;;;;;;;5055006;28;20025;-86
2024/03/30 15:15:14;;;;;;;33.45;5.85;;;;;;;;;;5069710;28;20029;-86
2024/03/30 15:18:19;;;;;;;;;;;;;;;;;;;;;
2024/03/30 15:21:16;;;;;;;33.13;5.20;;;;;;;;;;5057086;28;20040;-87
2024/03/30 15:24:15;;;;;;;42.10;6.93;;;;;;;;;;5040673;28;20043;-86
2024/03/30 15:27:12;;;;;;;42.47;6.35;;;;;;;;;;5056501;28;20524;-84
2024/03/30 15:33:23;;;;;;;39.85;4.78;;;;;;;;;;5061096;28;20040;-87
2024/03/30 15:36:21;;;;;;;32.92;4.95;;;;;;;;;;5045842;28;20037;-85
2024/03/30 15:39:19;;;;;;;48.95;6.60;;;;;;;;;;5048814;28;20037;-85
2024/03/30 15:42:17;;;;;;;61.00;6.88;;;;;;;;;;5081170;28;20044;-86
2024/03/30 15:45:15;;;;;;;42.95;6.50;;;;;;;;;;5057353;28;20032;-84
2024/03/30 15:48:13;;;;;;;38.30;5.45;;;;;;;;;;5064296;28;20046;-87
2024/03/30 15:51:14;;;;;;;49.17;7.18;;;;;;;;;;5065409;28;20037;-86
2024/03/30 15:54:12;;;;;;;52.53;5.85;;;;;;;;;;5050500;28;20037;-85
2024/03/30 15:57:13;;;;;;;51.35;5.65;;;;;;;;;;5070012;28;20514;-85
2024/03/30 16:00:11;;;;;;;51.30;6.72;;;;;;;;;;5072261;28;20040;-84
2024/03/30 16:03:09;;;;;;;47.85;8.20;;;;;;;;;;5057169;28;20033;-85
2024/03/30 16:06:07;;;;;;;42.20;6.38;;;;;;;;;;5046704;28;20048;-86
2024/03/30 16:09:08;;;;;;;32.67;5.38;;;;;;;;;;5057613;28;20041;-86
2024/03/30 16:12:06;;;;;;;49.00;5.90;;;;;;;;;;5058606;28;20039;-86
2024/03/30 16:15:04;;;;;;;39.47;6.13;;;;;;;;;;5070682;28;20039;-86
2024/03/30 16:18:02;;;;;;;44.08;7.78;;;;;;;;;;5068797;28;20050;-85
2024/03/30 16:21:03;;;;;;;35.17;4.78;;;;;;;;;;5046881;28;20038;-84
2024/03/30 16:24:01;;;;;;;53.65;6.53;;;;;;;;;;5045851;28;20529;-84
2024/03/30 16:26:59;;;;;;;43.92;6.53;;;;;;;;;;5065306;28;20041;-83
2024/03/30 16:29:59;;;;;;;36.03;5.63;;;;;;;;;;5055593;28;20037;-85
2024/03/30 16:32:57;;;;;;;48.45;6.55;;;;;;;;;;5048539;28;20036;-84
2024/03/30 16:35:55;;;;;;;50.10;6.05;;;;;;;;;;5051664;28;20033;-83
2024/03/30 16:38:53;;;;;;;34.88;6.00;;;;;;;;;;5060043;28;20041;-85
2024/03/30 16:41:50;;;;;;;37.22;6.18;;;;;;;;;;5074383;28;20565;-85
2024/03/30 16:44:49;;;;;;;41.28;5.25;;;;;;;;;;5049476;28;20037;-84
2024/03/30 16:47:53;;;;;;;44.72;5.82;;;;;;;;;;5044818;28;20040;-85
2024/03/30 16:50:51;;;;;;;44.13;7.13;;;;;;;;;;5054061;28;20025;-84
2024/03/30 16:53:49;;;;;;;54.72;6.60;;;;;;;;;;5065436;28;20616;-85
2024/03/30 16:56:47;;;;;;;43.65;5.85;;;;;;;;;;5058999;28;20033;-83
2024/03/30 16:59:44;;;;;;;53.10;7.13;;;;;;;;;;5054322;28;20508;-85
2024/03/30 17:02:45;;;;;;;42.67;5.65;;;;;;;;;;5058283;28;20036;-86
2024/03/30 17:05:43;;;;;;;54.97;7.22;;;;;;;;;;5061622;28;20044;-86
2024/03/30 17:08:41;;;;;;;46.70;7.72;;;;;;;;;;5047451;28;20406;-85
2024/03/30 17:11:39;;;;;;;62.13;8.40;;;;;;;;;;5063870;28;20029;-86
2024/03/30 17:14:37;;;;;;;44.03;6.50;;;;;;;;;;5063673;28;20041;-87
2024/03/30 17:17:35;;;;;;;59.40;7.82;;;;;;;;;;5039934;28;20430;-85
2024/03/30 17:20:33;;;;;;;48.25;8.73;;;;;;;;;;5072656;28;20038;-87
2024/03/30 17:23:31;;;;;;;50.50;7.55;;;;;;;;;;5058637;28;20500;-84
2024/03/30 17:26:29;;;;;;;44.47;6.43;;;;;;;;;;5050008;28;20514;-87
2024/03/30 17:29:27;;;;;;;45.17;5.28;;;;;;;;;;5049754;28;20117;-89
2024/03/30 17:32:25;;;;;;;55.03;6.25;;;;;;;;;;5057652;28;20035;-86
2024/03/30 17:35:22;;;;;;;47.00;5.85;;;;;;;;;;5045178;28;20045;-87
2024/03/30 17:38:20;;;;;;;53.40;6.43;;;;;;;;;;5062790;28;20044;-88
2024/03/30 17:41:21;;;;;;;42.75;5.03;;;;;;;;;;5045737;28;20037;-87